sensor_id;sensor_type;location;lat;lon;timestamp;P1;durP1;ratioP1;P2;durP2;ratioP2
2406;SDS011;37709;53.480;9.688;2022-07-05T00:01:12;5.00;;;2.77;;
2406;SDS011;37709;53.480;9.688;2022-07-05T00:03:39;5.03;;;3.13;;
2406;SDS011;37709;53.480;9.688;2022-07-05T00:06:07;4.70;;;3.37;;
2406;SDS011;37709;53.480;9.688;2022-07-05T00:08:35;4.50;;;3.77;;
2406;SDS011;37709;53.480;9.688;2022-07-05T00:11:02;6.20;;;3.40;;
2406;SDS011;37709;53.480;9.688;2022-07-05T00:13:30;3.13;;;2.70;;
2406;SDS011;37709;53.480;9.688;2022-07-05T00:15:57;3.87;;;2.97;;
2406;SDS011;37709;53.480;9.688;2022-07-05T00:18:25;3.90;;;3.00;;
2406;SDS011;37709;53.480;9.688;2022-07-05T00:20:52;3.47;;;2.70;;
2406;SDS011;37709;53.480;9.688;2022-07-05T00:23:20;3.70;;;2.97;;
2406;SDS011;37709;53.480;9.688;2022-07-05T00:25:47;3.90;;;2.77;;
2406;SDS011;37709;53.480;9.688;2022-07-05T00:28:15;2.67;;;2.43;;
2406;SDS011;37709;53.480;9.688;2022-07-05T00:30:42;4.03;;;2.80;;
2406;SDS011;37709;53.480;9.688;2022-07-05T00:33:10;3.73;;;3.03;;
2406;SDS011;37709;53.480;9.688;2022-07-05T00:35:37;5.73;;;2.80;;
2406;SDS011;37709;53.480;9.688;2022-07-05T00:38:05;4.70;;;3.33;;
2406;SDS011;37709;53.480;9.688;2022-07-05T00:40:32;2.93;;;2.57;;
2406;SDS011;37709;53.480;9.688;2022-07-05T00:43:00;5.70;;;3.10;;
2406;SDS011;37709;53.480;9.688;2022-07-05T00:45:27;2.67;;;2.47;;
2406;SDS011;37709;53.480;9.688;2022-07-05T00:47:54;3.90;;;2.33;;
2406;SDS011;37709;53.480;9.688;2022-07-05T00:50:22;3.07;;;2.73;;
2406;SDS011;37709;53.480;9.688;2022-07-05T00:52:52;4.00;;;3.07;;
2406;SDS011;37709;53.480;9.688;2022-07-05T00:55:21;3.13;;;2.57;;
2406;SDS011;37709;53.480;9.688;2022-07-05T00:57:49;4.57;;;2.63;;
2406;SDS011;37709;53.480;9.688;2022-07-05T01:00:17;8.83;;;2.90;;
2406;SDS011;37709;53.480;9.688;2022-07-05T01:02:45;2.73;;;2.53;;
2406;SDS011;37709;53.480;9.688;2022-07-05T01:05:13;4.53;;;3.20;;
2406;SDS011;37709;53.480;9.688;2022-07-05T01:07:41;3.93;;;2.73;;
2406;SDS011;37709;53.480;9.688;2022-07-05T01:10:08;3.60;;;2.53;;
2406;SDS011;37709;53.480;9.688;2022-07-05T01:12:39;5.27;;;3.17;;
2406;SDS011;37709;53.480;9.688;2022-07-05T01:15:08;5.50;;;2.60;;
2406;SDS011;37709;53.480;9.688;2022-07-05T01:17:36;4.57;;;3.23;;
2406;SDS011;37709;53.480;9.688;2022-07-05T01:20:04;3.33;;;3.03;;
2406;SDS011;37709;53.480;9.688;2022-07-05T01:25:24;4.00;;;2.57;;
2406;SDS011;37709;53.480;9.688;2022-07-05T01:27:53;3.63;;;2.93;;
2406;SDS011;37709;53.480;9.688;2022-07-05T01:30:23;4.93;;;3.33;;
2406;SDS011;37709;53.480;9.688;2022-07-05T01:32:51;3.73;;;2.80;;
2406;SDS011;37709;53.480;9.688;2022-07-05T01:35:19;4.67;;;2.60;;
2406;SDS011;37709;53.480;9.688;2022-07-05T01:37:50;4.90;;;3.30;;
2406;SDS011;37709;53.480;9.688;2022-07-05T01:40:19;4.67;;;3.43;;
2406;SDS011;37709;53.480;9.688;2022-07-05T01:42:47;4.80;;;3.70;;
2406;SDS011;37709;53.480;9.688;2022-07-05T01:45:16;4.27;;;3.53;;
2406;SDS011;37709;53.480;9.688;2022-07-05T01:48:04;3.70;;;3.07;;
2406;SDS011;37709;53.480;9.688;2022-07-05T01:50:35;3.53;;;3.23;;
2406;SDS011;37709;53.480;9.688;2022-07-05T01:53:08;4.30;;;3.90;;
2406;SDS011;37709;53.480;9.688;2022-07-05T01:55:44;4.57;;;3.63;;
2406;SDS011;37709;53.480;9.688;2022-07-05T01:58:15;3.47;;;3.23;;
2406;SDS011;37709;53.480;9.688;2022-07-05T02:00:47;4.43;;;3.57;;
2406;SDS011;37709;53.480;9.688;2022-07-05T02:03:16;6.60;;;4.10;;
2406;SDS011;37709;53.480;9.688;2022-07-05T02:06:04;4.17;;;3.77;;
2406;SDS011;37709;53.480;9.688;2022-07-05T02:08:34;4.10;;;3.77;;
2406;SDS011;37709;53.480;9.688;2022-07-05T02:11:02;4.83;;;4.30;;
2406;SDS011;37709;53.480;9.688;2022-07-05T02:13:31;5.90;;;4.50;;
2406;SDS011;37709;53.480;9.688;2022-07-05T02:15:59;5.53;;;3.77;;
2406;SDS011;37709;53.480;9.688;2022-07-05T02:18:26;5.40;;;3.63;;
2406;SDS011;37709;53.480;9.688;2022-07-05T02:20:55;7.30;;;4.70;;
2406;SDS011;37709;53.480;9.688;2022-07-05T02:23:22;5.00;;;3.87;;
2406;SDS011;37709;53.480;9.688;2022-07-05T02:25:50;4.90;;;4.40;;
2406;SDS011;37709;53.480;9.688;2022-07-05T02:28:19;6.50;;;4.30;;
2406;SDS011;37709;53.480;9.688;2022-07-05T02:30:49;5.67;;;5.07;;
2406;SDS011;37709;53.480;9.688;2022-07-05T02:33:17;5.13;;;4.13;;
2406;SDS011;37709;53.480;9.688;2022-07-05T02:35:46;5.83;;;5.20;;
2406;SDS011;37709;53.480;9.688;2022-07-05T02:38:14;5.70;;;5.10;;
2406;SDS011;37709;53.480;9.688;2022-07-05T02:40:41;5.37;;;4.67;;
2406;SDS011;37709;53.480;9.688;2022-07-05T02:43:09;5.20;;;4.80;;
2406;SDS011;37709;53.480;9.688;2022-07-05T02:45:37;5.00;;;4.33;;
2406;SDS011;37709;53.480;9.688;2022-07-05T02:48:05;5.67;;;5.17;;
2406;SDS011;37709;53.480;9.688;2022-07-05T02:50:33;5.57;;;5.07;;
2406;SDS011;37709;53.480;9.688;2022-07-05T02:53:02;6.33;;;5.40;;
2406;SDS011;37709;53.480;9.688;2022-07-05T02:55:31;5.13;;;4.73;;
2406;SDS011;37709;53.480;9.688;2022-07-05T02:57:58;5.00;;;4.43;;
2406;SDS011;37709;53.480;9.688;2022-07-05T03:00:30;5.40;;;4.90;;
2406;SDS011;37709;53.480;9.688;2022-07-05T03:02:58;4.80;;;4.33;;
2406;SDS011;37709;53.480;9.688;2022-07-05T03:05:53;5.93;;;5.33;;
2406;SDS011;37709;53.480;9.688;2022-07-05T03:08:22;10.67;;;6.27;;
2406;SDS011;37709;53.480;9.688;2022-07-05T03:10:50;8.23;;;4.77;;
2406;SDS011;37709;53.480;9.688;2022-07-05T03:13:18;5.97;;;5.37;;
2406;SDS011;37709;53.480;9.688;2022-07-05T03:15:46;5.90;;;5.40;;
2406;SDS011;37709;53.480;9.688;2022-07-05T03:18:17;6.57;;;5.97;;
2406;SDS011;37709;53.480;9.688;2022-07-05T03:20:45;6.57;;;5.93;;
2406;SDS011;37709;53.480;9.688;2022-07-05T03:23:13;5.50;;;5.10;;
2406;SDS011;37709;53.480;9.688;2022-07-05T03:25:48;6.00;;;5.50;;
2406;SDS011;37709;53.480;9.688;2022-07-05T03:28:15;6.00;;;5.40;;
2406;SDS011;37709;53.480;9.688;2022-07-05T03:30:45;5.77;;;5.17;;
2406;SDS011;37709;53.480;9.688;2022-07-05T03:33:13;6.80;;;6.10;;
2406;SDS011;37709;53.480;9.688;2022-07-05T03:35:44;7.90;;;5.60;;
2406;SDS011;37709;53.480;9.688;2022-07-05T03:38:13;6.37;;;5.33;;
2406;SDS011;37709;53.480;9.688;2022-07-05T03:40:44;6.23;;;5.73;;
2406;SDS011;37709;53.480;9.688;2022-07-05T03:43:12;5.87;;;5.37;;
2406;SDS011;37709;53.480;9.688;2022-07-05T03:45:40;5.97;;;5.40;;
2406;SDS011;37709;53.480;9.688;2022-07-05T03:48:08;6.67;;;5.60;;
2406;SDS011;37709;53.480;9.688;2022-07-05T03:50:56;6.73;;;5.53;;
2406;SDS011;37709;53.480;9.688;2022-07-05T03:53:24;6.03;;;5.43;;
2406;SDS011;37709;53.480;9.688;2022-07-05T03:55:55;6.43;;;5.83;;
2406;SDS011;37709;53.480;9.688;2022-07-05T03:58:27;6.03;;;5.47;;
2406;SDS011;37709;53.480;9.688;2022-07-05T04:00:57;8.10;;;5.60;;
2406;SDS011;37709;53.480;9.688;2022-07-05T04:06:20;7.10;;;5.83;;
2406;SDS011;37709;53.480;9.688;2022-07-05T04:08:49;5.13;;;4.63;;
2406;SDS011;37709;53.480;9.688;2022-07-05T04:11:16;7.40;;;5.00;;
2406;SDS011;37709;53.480;9.688;2022-07-05T04:13:47;7.33;;;4.67;;
2406;SDS011;37709;53.480;9.688;2022-07-05T04:16:16;5.70;;;5.20;;
2406;SDS011;37709;53.480;9.688;2022-07-05T04:18:44;5.50;;;4.33;;
2406;SDS011;37709;53.480;9.688;2022-07-05T04:21:12;5.37;;;4.87;;
2406;SDS011;37709;53.480;9.688;2022-07-05T04:23:41;4.60;;;4.00;;
2406;SDS011;37709;53.480;9.688;2022-07-05T04:29:04;5.20;;;4.70;;
2406;SDS011;37709;53.480;9.688;2022-07-05T04:31:35;4.80;;;4.40;;
2406;SDS011;37709;53.480;9.688;2022-07-05T04:34:03;5.07;;;4.60;;
2406;SDS011;37709;53.480;9.688;2022-07-05T04:36:35;4.70;;;4.20;;
2406;SDS011;37709;53.480;9.688;2022-07-05T04:39:04;10.13;;;4.90;;
2406;SDS011;37709;53.480;9.688;2022-07-05T04:41:33;9.50;;;4.13;;
2406;SDS011;37709;53.480;9.688;2022-07-05T04:44:03;4.77;;;4.27;;
2406;SDS011;37709;53.480;9.688;2022-07-05T04:46:32;5.37;;;4.20;;
2406;SDS011;37709;53.480;9.688;2022-07-05T04:49:00;8.73;;;4.00;;
2406;SDS011;37709;53.480;9.688;2022-07-05T04:51:27;6.47;;;3.53;;
2406;SDS011;37709;53.480;9.688;2022-07-05T04:53:55;7.70;;;3.80;;
2406;SDS011;37709;53.480;9.688;2022-07-05T04:56:22;6.80;;;4.20;;
2406;SDS011;37709;53.480;9.688;2022-07-05T04:58:51;4.60;;;3.50;;
2406;SDS011;37709;53.480;9.688;2022-07-05T05:01:19;4.00;;;3.27;;
2406;SDS011;37709;53.480;9.688;2022-07-05T05:03:47;4.20;;;3.80;;
2406;SDS011;37709;53.480;9.688;2022-07-05T05:06:14;4.17;;;3.80;;
2406;SDS011;37709;53.480;9.688;2022-07-05T05:08:42;3.90;;;3.60;;
2406;SDS011;37709;53.480;9.688;2022-07-05T05:11:09;4.90;;;3.60;;
2406;SDS011;37709;53.480;9.688;2022-07-05T05:13:37;5.90;;;3.90;;
2406;SDS011;37709;53.480;9.688;2022-07-05T05:16:05;4.10;;;3.70;;
2406;SDS011;37709;53.480;9.688;2022-07-05T05:18:32;5.83;;;3.70;;
2406;SDS011;37709;53.480;9.688;2022-07-05T05:21:00;5.17;;;3.30;;
2406;SDS011;37709;53.480;9.688;2022-07-05T05:23:27;5.70;;;3.60;;
2406;SDS011;37709;53.480;9.688;2022-07-05T05:25:55;4.30;;;3.70;;
2406;SDS011;37709;53.480;9.688;2022-07-05T05:28:22;4.73;;;3.60;;
2406;SDS011;37709;53.480;9.688;2022-07-05T05:30:50;5.00;;;3.60;;
2406;SDS011;37709;53.480;9.688;2022-07-05T05:33:17;6.23;;;3.13;;
2406;SDS011;37709;53.480;9.688;2022-07-05T05:35:47;3.93;;;3.37;;
2406;SDS011;37709;53.480;9.688;2022-07-05T05:38:15;5.33;;;3.43;;
2406;SDS011;37709;53.480;9.688;2022-07-05T05:40:42;4.40;;;3.10;;
2406;SDS011;37709;53.480;9.688;2022-07-05T05:43:11;3.40;;;2.73;;
2406;SDS011;37709;53.480;9.688;2022-07-05T05:48:32;4.20;;;2.60;;
2406;SDS011;37709;53.480;9.688;2022-07-05T05:50:59;3.17;;;2.70;;
2406;SDS011;37709;53.480;9.688;2022-07-05T05:53:27;4.63;;;2.70;;
2406;SDS011;37709;53.480;9.688;2022-07-05T05:55:56;2.97;;;2.73;;
2406;SDS011;37709;53.480;9.688;2022-07-05T05:58:24;2.73;;;2.53;;
2406;SDS011;37709;53.480;9.688;2022-07-05T06:00:52;3.30;;;2.67;;
2406;SDS011;37709;53.480;9.688;2022-07-05T06:03:24;4.17;;;2.60;;
2406;SDS011;37709;53.480;9.688;2022-07-05T06:05:52;2.37;;;2.10;;
2406;SDS011;37709;53.480;9.688;2022-07-05T06:08:20;2.63;;;1.93;;
2406;SDS011;37709;53.480;9.688;2022-07-05T06:13:43;3.13;;;1.80;;
2406;SDS011;37709;53.480;9.688;2022-07-05T06:16:12;3.73;;;2.10;;
2406;SDS011;37709;53.480;9.688;2022-07-05T06:18:39;3.90;;;2.33;;
2406;SDS011;37709;53.480;9.688;2022-07-05T06:21:07;2.30;;;1.70;;
2406;SDS011;37709;53.480;9.688;2022-07-05T06:23:34;2.00;;;1.63;;
2406;SDS011;37709;53.480;9.688;2022-07-05T06:26:01;2.10;;;1.80;;
2406;SDS011;37709;53.480;9.688;2022-07-05T06:28:29;3.13;;;1.70;;
2406;SDS011;37709;53.480;9.688;2022-07-05T06:30:58;3.10;;;1.80;;
2406;SDS011;37709;53.480;9.688;2022-07-05T06:33:27;2.17;;;1.60;;
2406;SDS011;37709;53.480;9.688;2022-07-05T06:35:56;1.60;;;1.50;;
2406;SDS011;37709;53.480;9.688;2022-07-05T06:38:24;6.70;;;1.97;;
2406;SDS011;37709;53.480;9.688;2022-07-05T06:40:52;1.70;;;1.60;;
2406;SDS011;37709;53.480;9.688;2022-07-05T06:43:20;2.70;;;1.90;;
2406;SDS011;37709;53.480;9.688;2022-07-05T06:46:02;3.40;;;1.60;;
2406;SDS011;37709;53.480;9.688;2022-07-05T06:48:30;3.23;;;1.70;;
2406;SDS011;37709;53.480;9.688;2022-07-05T06:50:57;2.03;;;1.43;;
2406;SDS011;37709;53.480;9.688;2022-07-05T06:53:25;2.37;;;1.20;;
2406;SDS011;37709;53.480;9.688;2022-07-05T06:55:53;2.30;;;1.50;;
2406;SDS011;37709;53.480;9.688;2022-07-05T06:58:22;2.07;;;1.60;;
2406;SDS011;37709;53.480;9.688;2022-07-05T07:00:50;2.17;;;1.40;;
2406;SDS011;37709;53.480;9.688;2022-07-05T07:03:38;1.50;;;1.23;;
2406;SDS011;37709;53.480;9.688;2022-07-05T07:06:31;2.50;;;1.50;;
2406;SDS011;37709;53.480;9.688;2022-07-05T07:08:59;1.77;;;1.10;;
2406;SDS011;37709;53.480;9.688;2022-07-05T07:11:45;2.57;;;1.20;;
2406;SDS011;37709;53.480;9.688;2022-07-05T07:14:13;1.40;;;1.27;;
2406;SDS011;37709;53.480;9.688;2022-07-05T07:16:42;2.17;;;1.30;;
2406;SDS011;37709;53.480;9.688;2022-07-05T07:19:10;1.23;;;1.00;;
2406;SDS011;37709;53.480;9.688;2022-07-05T07:21:40;2.93;;;1.20;;
2406;SDS011;37709;53.480;9.688;2022-07-05T07:24:11;1.90;;;1.03;;
2406;SDS011;37709;53.480;9.688;2022-07-05T07:26:39;4.50;;;1.20;;
2406;SDS011;37709;53.480;9.688;2022-07-05T07:29:26;1.93;;;1.13;;
2406;SDS011;37709;53.480;9.688;2022-07-05T07:31:54;3.53;;;0.90;;
2406;SDS011;37709;53.480;9.688;2022-07-05T07:34:22;1.10;;;1.00;;
2406;SDS011;37709;53.480;9.688;2022-07-05T07:36:51;1.83;;;0.87;;
2406;SDS011;37709;53.480;9.688;2022-07-05T07:39:18;1.50;;;0.80;;
2406;SDS011;37709;53.480;9.688;2022-07-05T07:41:46;2.20;;;1.13;;
2406;SDS011;37709;53.480;9.688;2022-07-05T07:44:15;1.57;;;1.10;;
2406;SDS011;37709;53.480;9.688;2022-07-05T07:46:43;1.53;;;1.03;;
2406;SDS011;37709;53.480;9.688;2022-07-05T07:49:11;1.67;;;0.93;;
2406;SDS011;37709;53.480;9.688;2022-07-05T07:51:41;0.80;;;0.70;;
2406;SDS011;37709;53.480;9.688;2022-07-05T07:54:09;2.50;;;0.90;;
2406;SDS011;37709;53.480;9.688;2022-07-05T07:56:36;2.70;;;0.90;;
2406;SDS011;37709;53.480;9.688;2022-07-05T07:59:04;3.23;;;0.93;;
2406;SDS011;37709;53.480;9.688;2022-07-05T08:01:32;2.17;;;0.83;;
2406;SDS011;37709;53.480;9.688;2022-07-05T08:04:04;1.63;;;0.60;;
2406;SDS011;37709;53.480;9.688;2022-07-05T08:06:37;1.20;;;0.70;;
2406;SDS011;37709;53.480;9.688;2022-07-05T08:09:04;1.13;;;0.70;;
2406;SDS011;37709;53.480;9.688;2022-07-05T08:11:39;1.70;;;0.50;;
2406;SDS011;37709;53.480;9.688;2022-07-05T08:14:07;2.00;;;1.03;;
2406;SDS011;37709;53.480;9.688;2022-07-05T08:16:36;3.53;;;0.97;;
2406;SDS011;37709;53.480;9.688;2022-07-05T08:19:04;1.80;;;0.70;;
2406;SDS011;37709;53.480;9.688;2022-07-05T08:21:50;1.50;;;0.70;;
2406;SDS011;37709;53.480;9.688;2022-07-05T08:24:17;0.90;;;0.67;;
2406;SDS011;37709;53.480;9.688;2022-07-05T08:26:45;2.40;;;0.90;;
2406;SDS011;37709;53.480;9.688;2022-07-05T08:29:13;1.20;;;0.73;;
2406;SDS011;37709;53.480;9.688;2022-07-05T08:31:50;1.77;;;0.57;;
2406;SDS011;37709;53.480;9.688;2022-07-05T08:34:23;1.20;;;0.60;;
2406;SDS011;37709;53.480;9.688;2022-07-05T08:36:52;0.83;;;0.50;;
2406;SDS011;37709;53.480;9.688;2022-07-05T08:39:20;1.47;;;0.60;;
2406;SDS011;37709;53.480;9.688;2022-07-05T08:41:50;2.23;;;0.50;;
2406;SDS011;37709;53.480;9.688;2022-07-05T08:44:23;1.83;;;0.70;;
2406;SDS011;37709;53.480;9.688;2022-07-05T08:46:51;1.10;;;0.60;;
2406;SDS011;37709;53.480;9.688;2022-07-05T08:49:22;1.20;;;0.60;;
2406;SDS011;37709;53.480;9.688;2022-07-05T08:51:56;1.37;;;0.57;;
2406;SDS011;37709;53.480;9.688;2022-07-05T08:54:29;1.52;;;0.70;;
2406;SDS011;37709;53.480;9.688;2022-07-05T08:56:57;1.20;;;0.40;;
2406;SDS011;37709;53.480;9.688;2022-07-05T08:59:41;1.60;;;0.63;;
2406;SDS011;37709;53.480;9.688;2022-07-05T09:02:10;1.63;;;0.60;;
2406;SDS011;37709;53.480;9.688;2022-07-05T09:04:41;1.83;;;0.70;;
2406;SDS011;37709;53.480;9.688;2022-07-05T09:10:13;1.40;;;0.60;;
2406;SDS011;37709;53.480;9.688;2022-07-05T09:12:41;1.67;;;0.82;;
2406;SDS011;37709;53.480;9.688;2022-07-05T09:15:09;1.00;;;0.60;;
2406;SDS011;37709;53.480;9.688;2022-07-05T09:17:44;1.30;;;0.57;;
2406;SDS011;37709;53.480;9.688;2022-07-05T09:20:12;1.47;;;0.50;;
2406;SDS011;37709;53.480;9.688;2022-07-05T09:22:48;1.10;;;0.60;;
2406;SDS011;37709;53.480;9.688;2022-07-05T09:25:27;1.80;;;0.43;;
2406;SDS011;37709;53.480;9.688;2022-07-05T09:27:58;1.73;;;0.67;;
2406;SDS011;37709;53.480;9.688;2022-07-05T09:35:32;2.37;;;0.50;;
2406;SDS011;37709;53.480;9.688;2022-07-05T09:38:00;1.00;;;0.60;;
2406;SDS011;37709;53.480;9.688;2022-07-05T09:40:31;0.80;;;0.50;;
2406;SDS011;37709;53.480;9.688;2022-07-05T09:43:17;1.10;;;0.60;;
2406;SDS011;37709;53.480;9.688;2022-07-05T09:45:50;1.27;;;0.50;;
2406;SDS011;37709;53.480;9.688;2022-07-05T09:48:19;2.27;;;0.60;;
2406;SDS011;37709;53.480;9.688;2022-07-05T09:53:53;1.77;;;0.60;;
2406;SDS011;37709;53.480;9.688;2022-07-05T09:56:27;1.67;;;0.87;;
2406;SDS011;37709;53.480;9.688;2022-07-05T09:59:11;2.20;;;0.70;;
2406;SDS011;37709;53.480;9.688;2022-07-05T10:01:40;0.93;;;0.53;;
2406;SDS011;37709;53.480;9.688;2022-07-05T10:04:08;1.20;;;0.70;;
2406;SDS011;37709;53.480;9.688;2022-07-05T10:06:35;0.70;;;0.50;;
2406;SDS011;37709;53.480;9.688;2022-07-05T10:09:03;1.80;;;0.70;;
2406;SDS011;37709;53.480;9.688;2022-07-05T10:11:32;1.20;;;0.43;;
2406;SDS011;37709;53.480;9.688;2022-07-05T10:14:02;2.83;;;0.73;;
2406;SDS011;37709;53.480;9.688;2022-07-05T10:16:35;0.90;;;0.50;;
2406;SDS011;37709;53.480;9.688;2022-07-05T10:19:03;0.63;;;0.53;;
2406;SDS011;37709;53.480;9.688;2022-07-05T10:21:35;0.80;;;0.50;;
2406;SDS011;37709;53.480;9.688;2022-07-05T10:24:22;1.17;;;0.80;;
2406;SDS011;37709;53.480;9.688;2022-07-05T10:26:50;2.20;;;0.47;;
2406;SDS011;37709;53.480;9.688;2022-07-05T10:29:19;0.97;;;0.50;;
2406;SDS011;37709;53.480;9.688;2022-07-05T10:31:47;2.03;;;0.50;;
2406;SDS011;37709;53.480;9.688;2022-07-05T10:34:16;1.33;;;0.40;;
2406;SDS011;37709;53.480;9.688;2022-07-05T10:40:03;1.80;;;0.50;;
2406;SDS011;37709;53.480;9.688;2022-07-05T10:50:52;1.47;;;0.60;;
2406;SDS011;37709;53.480;9.688;2022-07-05T10:58:46;1.00;;;0.53;;
2406;SDS011;37709;53.480;9.688;2022-07-05T11:06:29;0.83;;;0.40;;
2406;SDS011;37709;53.480;9.688;2022-07-05T11:11:32;1.67;;;0.50;;
2406;SDS011;37709;53.480;9.688;2022-07-05T11:23:04;1.17;;;0.50;;
2406;SDS011;37709;53.480;9.688;2022-07-05T11:25:36;1.43;;;0.80;;
2406;SDS011;37709;53.480;9.688;2022-07-05T11:28:13;3.23;;;0.70;;
2406;SDS011;37709;53.480;9.688;2022-07-05T11:30:47;1.30;;;0.53;;
2406;SDS011;37709;53.480;9.688;2022-07-05T11:35:58;0.80;;;0.50;;
2406;SDS011;37709;53.480;9.688;2022-07-05T11:38:26;0.70;;;0.40;;
2406;SDS011;37709;53.480;9.688;2022-07-05T11:41:14;2.07;;;0.63;;
2406;SDS011;37709;53.480;9.688;2022-07-05T11:43:42;0.70;;;0.50;;
2406;SDS011;37709;53.480;9.688;2022-07-05T11:46:09;0.60;;;0.40;;
2406;SDS011;37709;53.480;9.688;2022-07-05T11:48:57;1.92;;;0.70;;
2406;SDS011;37709;53.480;9.688;2022-07-05T11:51:26;1.10;;;0.40;;
2406;SDS011;37709;53.480;9.688;2022-07-05T11:53:54;1.70;;;0.80;;
2406;SDS011;37709;53.480;9.688;2022-07-05T11:59:38;2.50;;;0.80;;
2406;SDS011;37709;53.480;9.688;2022-07-05T12:02:09;1.25;;;0.70;;
2406;SDS011;37709;53.480;9.688;2022-07-05T12:04:37;1.53;;;0.50;;
2406;SDS011;37709;53.480;9.688;2022-07-05T12:07:10;3.43;;;0.70;;
2406;SDS011;37709;53.480;9.688;2022-07-05T12:09:38;1.60;;;0.50;;
2406;SDS011;37709;53.480;9.688;2022-07-05T12:12:24;3.27;;;0.77;;
2406;SDS011;37709;53.480;9.688;2022-07-05T12:15:17;1.50;;;0.50;;
2406;SDS011;37709;53.480;9.688;2022-07-05T12:17:50;3.90;;;0.70;;
2406;SDS011;37709;53.480;9.688;2022-07-05T12:20:22;1.63;;;0.60;;
2406;SDS011;37709;53.480;9.688;2022-07-05T12:22:51;2.43;;;0.57;;
2406;SDS011;37709;53.480;9.688;2022-07-05T12:25:19;1.43;;;0.60;;
2406;SDS011;37709;53.480;9.688;2022-07-05T12:27:50;1.63;;;0.75;;
2406;SDS011;37709;53.480;9.688;2022-07-05T12:30:19;2.00;;;0.80;;
2406;SDS011;37709;53.480;9.688;2022-07-05T12:35:43;1.70;;;0.70;;
2406;SDS011;37709;53.480;9.688;2022-07-05T12:38:19;1.20;;;0.50;;
2406;SDS011;37709;53.480;9.688;2022-07-05T12:40:48;1.07;;;0.60;;
2406;SDS011;37709;53.480;9.688;2022-07-05T12:43:27;0.90;;;0.60;;
2406;SDS011;37709;53.480;9.688;2022-07-05T12:45:58;1.63;;;0.50;;
2406;SDS011;37709;53.480;9.688;2022-07-05T12:48:31;1.35;;;0.80;;
2406;SDS011;37709;53.480;9.688;2022-07-05T12:51:00;1.33;;;0.60;;
2406;SDS011;37709;53.480;9.688;2022-07-05T12:53:46;0.80;;;0.60;;
2406;SDS011;37709;53.480;9.688;2022-07-05T12:56:34;1.33;;;0.80;;
2406;SDS011;37709;53.480;9.688;2022-07-05T12:59:56;0.80;;;0.67;;
2406;SDS011;37709;53.480;9.688;2022-07-05T13:02:38;1.97;;;0.83;;
2406;SDS011;37709;53.480;9.688;2022-07-05T13:05:09;1.27;;;0.60;;
2406;SDS011;37709;53.480;9.688;2022-07-05T13:07:50;1.90;;;0.90;;
2406;SDS011;37709;53.480;9.688;2022-07-05T13:10:24;1.90;;;0.60;;
2406;SDS011;37709;53.480;9.688;2022-07-05T13:12:55;4.17;;;1.00;;
2406;SDS011;37709;53.480;9.688;2022-07-05T13:15:26;1.03;;;0.70;;
2406;SDS011;37709;53.480;9.688;2022-07-05T13:17:54;2.07;;;0.90;;
2406;SDS011;37709;53.480;9.688;2022-07-05T13:20:22;1.27;;;0.63;;
2406;SDS011;37709;53.480;9.688;2022-07-05T13:22:50;1.67;;;0.70;;
2406;SDS011;37709;53.480;9.688;2022-07-05T13:25:18;3.93;;;1.00;;
2406;SDS011;37709;53.480;9.688;2022-07-05T13:27:46;1.03;;;0.60;;
2406;SDS011;37709;53.480;9.688;2022-07-05T13:30:13;1.03;;;0.60;;
2406;SDS011;37709;53.480;9.688;2022-07-05T13:32:54;2.27;;;0.50;;
2406;SDS011;37709;53.480;9.688;2022-07-05T13:35:21;1.73;;;0.60;;
2406;SDS011;37709;53.480;9.688;2022-07-05T13:37:48;1.40;;;0.70;;
2406;SDS011;37709;53.480;9.688;2022-07-05T13:40:16;1.90;;;0.60;;
2406;SDS011;37709;53.480;9.688;2022-07-05T13:42:44;1.10;;;0.60;;
2406;SDS011;37709;53.480;9.688;2022-07-05T13:45:12;1.00;;;0.60;;
2406;SDS011;37709;53.480;9.688;2022-07-05T13:47:40;2.17;;;1.03;;
2406;SDS011;37709;53.480;9.688;2022-07-05T13:50:08;1.60;;;0.70;;
2406;SDS011;37709;53.480;9.688;2022-07-05T13:52:54;2.50;;;0.80;;
2406;SDS011;37709;53.480;9.688;2022-07-05T13:55:21;1.53;;;0.80;;
2406;SDS011;37709;53.480;9.688;2022-07-05T13:57:54;1.77;;;0.80;;
2406;SDS011;37709;53.480;9.688;2022-07-05T14:00:23;2.47;;;0.80;;
2406;SDS011;37709;53.480;9.688;2022-07-05T14:02:53;1.10;;;0.70;;
2406;SDS011;37709;53.480;9.688;2022-07-05T14:05:24;2.17;;;0.67;;
2406;SDS011;37709;53.480;9.688;2022-07-05T14:10:51;1.75;;;0.68;;
2406;SDS011;37709;53.480;9.688;2022-07-05T14:13:25;1.13;;;0.70;;
2406;SDS011;37709;53.480;9.688;2022-07-05T14:15:53;3.13;;;0.70;;
2406;SDS011;37709;53.480;9.688;2022-07-05T14:18:21;2.07;;;0.70;;
2406;SDS011;37709;53.480;9.688;2022-07-05T14:23:44;2.23;;;0.70;;
2406;SDS011;37709;53.480;9.688;2022-07-05T14:26:14;1.37;;;0.67;;
2406;SDS011;37709;53.480;9.688;2022-07-05T14:28:43;3.00;;;1.00;;
2406;SDS011;37709;53.480;9.688;2022-07-05T14:31:11;1.60;;;0.80;;
2406;SDS011;37709;53.480;9.688;2022-07-05T14:33:38;2.43;;;0.67;;
2406;SDS011;37709;53.480;9.688;2022-07-05T14:36:07;1.77;;;0.90;;
2406;SDS011;37709;53.480;9.688;2022-07-05T14:38:35;2.50;;;0.97;;
2406;SDS011;37709;53.480;9.688;2022-07-05T14:41:02;2.50;;;0.80;;
2406;SDS011;37709;53.480;9.688;2022-07-05T14:43:30;2.33;;;0.80;;
2406;SDS011;37709;53.480;9.688;2022-07-05T14:45:59;2.30;;;0.93;;
2406;SDS011;37709;53.480;9.688;2022-07-05T14:48:27;1.40;;;0.80;;
2406;SDS011;37709;53.480;9.688;2022-07-05T14:50:56;2.53;;;0.80;;
2406;SDS011;37709;53.480;9.688;2022-07-05T14:53:26;1.73;;;0.50;;
2406;SDS011;37709;53.480;9.688;2022-07-05T14:55:54;1.67;;;0.70;;
2406;SDS011;37709;53.480;9.688;2022-07-05T14:58:22;1.33;;;0.77;;
2406;SDS011;37709;53.480;9.688;2022-07-05T15:00:50;1.67;;;0.60;;
2406;SDS011;37709;53.480;9.688;2022-07-05T15:03:18;0.90;;;0.57;;
2406;SDS011;37709;53.480;9.688;2022-07-05T15:05:51;2.03;;;0.77;;
2406;SDS011;37709;53.480;9.688;2022-07-05T15:08:19;1.30;;;0.60;;
2406;SDS011;37709;53.480;9.688;2022-07-05T15:10:50;0.90;;;0.63;;
2406;SDS011;37709;53.480;9.688;2022-07-05T15:13:18;1.53;;;0.80;;
2406;SDS011;37709;53.480;9.688;2022-07-05T15:15:47;2.20;;;0.70;;
2406;SDS011;37709;53.480;9.688;2022-07-05T15:18:14;2.83;;;0.83;;
2406;SDS011;37709;53.480;9.688;2022-07-05T15:20:42;1.00;;;0.60;;
2406;SDS011;37709;53.480;9.688;2022-07-05T15:23:09;1.27;;;0.90;;
2406;SDS011;37709;53.480;9.688;2022-07-05T15:25:36;2.87;;;0.60;;
2406;SDS011;37709;53.480;9.688;2022-07-05T15:28:04;1.67;;;0.60;;
2406;SDS011;37709;53.480;9.688;2022-07-05T15:30:37;2.27;;;1.13;;
2406;SDS011;37709;53.480;9.688;2022-07-05T15:33:06;1.73;;;0.90;;
2406;SDS011;37709;53.480;9.688;2022-07-05T15:35:37;3.10;;;1.00;;
2406;SDS011;37709;53.480;9.688;2022-07-05T15:38:05;2.60;;;0.60;;
2406;SDS011;37709;53.480;9.688;2022-07-05T15:40:32;1.43;;;0.70;;
2406;SDS011;37709;53.480;9.688;2022-07-05T15:43:00;1.80;;;0.80;;
2406;SDS011;37709;53.480;9.688;2022-07-05T15:45:29;1.90;;;0.80;;
2406;SDS011;37709;53.480;9.688;2022-07-05T15:47:56;1.87;;;1.17;;
2406;SDS011;37709;53.480;9.688;2022-07-05T15:50:24;3.47;;;1.00;;
2406;SDS011;37709;53.480;9.688;2022-07-05T15:55:44;3.60;;;0.83;;
2406;SDS011;37709;53.480;9.688;2022-07-05T15:58:12;2.70;;;0.90;;
2406;SDS011;37709;53.480;9.688;2022-07-05T16:00:41;2.20;;;1.00;;
2406;SDS011;37709;53.480;9.688;2022-07-05T16:03:09;2.60;;;0.90;;
2406;SDS011;37709;53.480;9.688;2022-07-05T16:05:36;3.43;;;0.70;;
2406;SDS011;37709;53.480;9.688;2022-07-05T16:08:04;1.73;;;1.00;;
2406;SDS011;37709;53.480;9.688;2022-07-05T16:10:40;2.10;;;0.80;;
2406;SDS011;37709;53.480;9.688;2022-07-05T16:13:07;4.83;;;1.13;;
2406;SDS011;37709;53.480;9.688;2022-07-05T16:15:35;3.17;;;1.07;;
2406;SDS011;37709;53.480;9.688;2022-07-05T16:18:21;2.10;;;0.83;;
2406;SDS011;37709;53.480;9.688;2022-07-05T16:20:49;2.50;;;0.93;;
2406;SDS011;37709;53.480;9.688;2022-07-05T16:23:27;2.40;;;0.80;;
2406;SDS011;37709;53.480;9.688;2022-07-05T16:25:54;3.20;;;0.90;;
2406;SDS011;37709;53.480;9.688;2022-07-05T16:28:24;2.97;;;0.93;;
2406;SDS011;37709;53.480;9.688;2022-07-05T16:30:51;1.97;;;0.70;;
2406;SDS011;37709;53.480;9.688;2022-07-05T16:33:19;1.67;;;0.67;;
2406;SDS011;37709;53.480;9.688;2022-07-05T16:35:47;1.37;;;0.60;;